sensor_id;sensor_type;location;lat;lon;timestamp;pressure;altitude;pressure_sealevel;temperature;humidity
61697;BME280;47610;52.252;20.922;2023-03-19T00:02:13;100373.70;;;6.59;73.20
61697;BME280;47610;52.252;20.922;2023-03-19T00:07:17;100373.10;;;6.52;73.59
61697;BME280;47610;52.252;20.922;2023-03-19T00:12:20;100363.77;;;6.43;74.40
61697;BME280;47610;52.252;20.922;2023-03-19T00:17:24;100367.75;;;6.42;75.34
61697;BME280;47610;52.252;20.922;2023-03-19T00:22:27;100368.73;;;6.42;75.40
61697;BME280;47610;52.252;20.922;2023-03-19T00:27:30;100364.14;;;6.46;75.55
61697;BME280;47610;52.252;20.922;2023-03-19T00:32:34;100362.83;;;6.46;75.52
61697;BME280;47610;52.252;20.922;2023-03-19T00:37:37;100363.29;;;6.43;75.83
61697;BME280;47610;52.252;20.922;2023-03-19T00:42:41;100364.61;;;6.37;76.05
61697;BME280;47610;52.252;20.922;2023-03-19T00:47:44;100368.98;;;6.30;76.64
61697;BME280;47610;52.252;20.922;2023-03-19T00:52:47;100360.01;;;6.24;77.62
61697;BME280;47610;52.252;20.922;2023-03-19T00:57:50;100354.80;;;6.17;77.95
61697;BME280;47610;52.252;20.922;2023-03-19T01:02:53;100360.27;;;6.13;78.25
61697;BME280;47610;52.252;20.922;2023-03-19T01:07:57;100364.63;;;6.10;78.93
61697;BME280;47610;52.252;20.922;2023-03-19T01:13:00;100367.81;;;6.07;79.69
61697;BME280;47610;52.252;20.922;2023-03-19T01:18:04;100363.59;;;6.01;80.11
61697;BME280;47610;52.252;20.922;2023-03-19T01:23:07;100367.08;;;5.92;80.64
61697;BME280;47610;52.252;20.922;2023-03-19T01:28:11;100369.09;;;5.83;80.96
61697;BME280;47610;52.252;20.922;2023-03-19T01:33:14;100379.23;;;5.76;82.67
61697;BME280;47610;52.252;20.922;2023-03-19T01:38:19;100378.77;;;5.72;83.49
61697;BME280;47610;52.252;20.922;2023-03-19T01:43:21;100376.23;;;5.68;84.26
61697;BME280;47610;52.252;20.922;2023-03-19T01:48:30;100377.90;;;5.62;84.63
61697;BME280;47610;52.252;20.922;2023-03-19T01:53:40;100372.50;;;5.56;85.88
61697;BME280;47610;52.252;20.922;2023-03-19T01:58:50;100372.38;;;5.50;87.05
61697;BME280;47610;52.252;20.922;2023-03-19T02:03:59;100371.39;;;5.44;87.84
61697;BME280;47610;52.252;20.922;2023-03-19T02:09:05;100370.86;;;5.39;88.20
61697;BME280;47610;52.252;20.922;2023-03-19T02:14:09;100366.48;;;5.36;88.45
61697;BME280;47610;52.252;20.922;2023-03-19T02:19:17;100360.77;;;5.34;89.15
61697;BME280;47610;52.252;20.922;2023-03-19T02:24:27;100359.38;;;5.28;89.62
61697;BME280;47610;52.252;20.922;2023-03-19T02:29:34;100355.08;;;5.29;89.80
61697;BME280;47610;52.252;20.922;2023-03-19T02:34:40;100357.38;;;5.27;90.66
61697;BME280;47610;52.252;20.922;2023-03-19T02:39:50;100357.29;;;5.22;90.86
61697;BME280;47610;52.252;20.922;2023-03-19T02:44:54;100367.34;;;5.22;91.18
61697;BME280;47610;52.252;20.922;2023-03-19T02:49:57;100370.07;;;5.22;91.13
61697;BME280;47610;52.252;20.922;2023-03-19T02:55:00;100370.52;;;5.23;91.49
61697;BME280;47610;52.252;20.922;2023-03-19T03:00:05;100372.17;;;5.21;92.02
61697;BME280;47610;52.252;20.922;2023-03-19T03:05:07;100373.91;;;5.19;91.99
61697;BME280;47610;52.252;20.922;2023-03-19T03:10:12;100377.77;;;5.15;92.57
61697;BME280;47610;52.252;20.922;2023-03-19T03:15:15;100374.28;;;5.11;92.66
61697;BME280;47610;52.252;20.922;2023-03-19T03:20:23;100374.27;;;5.10;93.13
61697;BME280;47610;52.252;20.922;2023-03-19T03:25:26;100371.46;;;5.07;93.41
61697;BME280;47610;52.252;20.922;2023-03-19T03:30:30;100371.76;;;5.03;93.75
61697;BME280;47610;52.252;20.922;2023-03-19T03:35:33;100370.98;;;4.99;94.15
61697;BME280;47610;52.252;20.922;2023-03-19T03:40:37;100364.24;;;4.96;94.30
61697;BME280;47610;52.252;20.922;2023-03-19T03:45:40;100360.52;;;4.93;94.41
61697;BME280;47610;52.252;20.922;2023-03-19T03:50:45;100366.29;;;4.87;95.08
61697;BME280;47610;52.252;20.922;2023-03-19T03:55:51;100361.11;;;4.80;95.88
61697;BME280;47610;52.252;20.922;2023-03-19T04:00:56;100356.48;;;4.71;96.84
61697;BME280;47610;52.252;20.922;2023-03-19T04:05:59;100364.77;;;4.65;97.08
61697;BME280;47610;52.252;20.922;2023-03-19T04:11:07;100357.73;;;4.60;97.22
61697;BME280;47610;52.252;20.922;2023-03-19T04:16:11;100348.99;;;4.55;97.94
61697;BME280;47610;52.252;20.922;2023-03-19T04:21:14;100350.78;;;4.51;98.44
61697;BME280;47610;52.252;20.922;2023-03-19T04:26:18;100346.35;;;4.48;98.49
61697;BME280;47610;52.252;20.922;2023-03-19T04:31:21;100345.88;;;4.46;98.63
61697;BME280;47610;52.252;20.922;2023-03-19T04:36:25;100346.27;;;4.47;99.29
61697;BME280;47610;52.252;20.922;2023-03-19T04:41:28;100345.04;;;4.45;99.20
61697;BME280;47610;52.252;20.922;2023-03-19T04:46:33;100347.39;;;4.41;99.51
61697;BME280;47610;52.252;20.922;2023-03-19T04:51:37;100348.95;;;4.38;100.00
61697;BME280;47610;52.252;20.922;2023-03-19T04:56:40;100349.00;;;4.38;99.93
61697;BME280;47610;52.252;20.922;2023-03-19T05:01:45;100349.23;;;4.45;99.90
61697;BME280;47610;52.252;20.922;2023-03-19T05:06:48;100352.73;;;4.52;99.18
61697;BME280;47610;52.252;20.922;2023-03-19T05:12:12;100356.69;;;4.61;98.62
61697;BME280;47610;52.252;20.922;2023-03-19T05:17:15;100361.06;;;4.64;97.98
61697;BME280;47610;52.252;20.922;2023-03-19T05:22:20;100367.91;;;4.72;97.50
61697;BME280;47610;52.252;20.922;2023-03-19T05:27:23;100371.45;;;4.81;97.02
61697;BME280;47610;52.252;20.922;2023-03-19T05:32:27;100369.77;;;4.84;96.79
61697;BME280;47610;52.252;20.922;2023-03-19T05:37:31;100373.98;;;4.92;96.50
61697;BME280;47610;52.252;20.922;2023-03-19T05:42:34;100377.92;;;5.09;95.80
61697;BME280;47610;52.252;20.922;2023-03-19T05:47:37;100379.98;;;5.29;94.84
61697;BME280;47610;52.252;20.922;2023-03-19T05:52:44;100372.71;;;5.53;92.74
61697;BME280;47610;52.252;20.922;2023-03-19T05:57:47;100376.70;;;5.81;90.61
61697;BME280;47610;52.252;20.922;2023-03-19T06:02:50;100375.02;;;6.10;88.36
61697;BME280;47610;52.252;20.922;2023-03-19T06:07:54;100378.45;;;6.44;85.41
61697;BME280;47610;52.252;20.922;2023-03-19T06:12:57;100376.19;;;6.86;81.33
61697;BME280;47610;52.252;20.922;2023-03-19T06:18:00;100371.95;;;7.49;77.63
61697;BME280;47610;52.252;20.922;2023-03-19T06:23:04;100376.67;;;8.17;74.41
61697;BME280;47610;52.252;20.922;2023-03-19T06:28:07;100379.48;;;8.85;70.36
61697;BME280;47610;52.252;20.922;2023-03-19T06:33:11;100387.88;;;10.55;64.51
61697;BME280;47610;52.252;20.922;2023-03-19T06:38:14;100389.86;;;13.20;54.87
61697;BME280;47610;52.252;20.922;2023-03-19T06:43:17;100394.42;;;15.96;43.32
61697;BME280;47610;52.252;20.922;2023-03-19T06:48:21;100407.02;;;18.41;37.04
61697;BME280;47610;52.252;20.922;2023-03-19T06:53:24;100411.11;;;19.41;32.94
61697;BME280;47610;52.252;20.922;2023-03-19T06:58:27;100415.83;;;19.47;30.51
61697;BME280;47610;52.252;20.922;2023-03-19T07:03:31;100410.94;;;18.41;29.21
61697;BME280;47610;52.252;20.922;2023-03-19T07:08:34;100413.07;;;18.38;29.38
61697;BME280;47610;52.252;20.922;2023-03-19T07:13:37;100417.90;;;19.15;29.00
61697;BME280;47610;52.252;20.922;2023-03-19T07:18:41;100415.45;;;19.48;27.83
61697;BME280;47610;52.252;20.922;2023-03-19T07:23:44;100416.22;;;20.92;26.57
61697;BME280;47610;52.252;20.922;2023-03-19T07:28:47;100429.13;;;23.10;24.85
61697;BME280;47610;52.252;20.922;2023-03-19T07:33:51;100429.16;;;26.90;22.36
61697;BME280;47610;52.252;20.922;2023-03-19T07:38:55;100440.02;;;30.59;19.70
61697;BME280;47610;52.252;20.922;2023-03-19T07:43:58;100442.68;;;33.11;17.35
61697;BME280;47610;52.252;20.922;2023-03-19T07:49:02;100444.95;;;35.04;15.80
61697;BME280;47610;52.252;20.922;2023-03-19T07:54:05;100446.49;;;35.27;14.48
61697;BME280;47610;52.252;20.922;2023-03-19T07:59:09;100442.46;;;34.43;14.39
61697;BME280;47610;52.252;20.922;2023-03-19T08:04:12;100440.65;;;33.44;14.18
61697;BME280;47610;52.252;20.922;2023-03-19T08:09:15;100439.80;;;34.84;14.12
61697;BME280;47610;52.252;20.922;2023-03-19T08:14:19;100434.48;;;36.07;13.55
61697;BME280;47610;52.252;20.922;2023-03-19T08:19:23;100437.94;;;36.72;12.87
61697;BME280;47610;52.252;20.922;2023-03-19T08:24:26;100433.73;;;36.35;12.79
61697;BME280;47610;52.252;20.922;2023-03-19T08:29:32;100439.05;;;36.89;12.60
61697;BME280;47610;52.252;20.922;2023-03-19T08:34:35;100435.20;;;36.97;12.34
61697;BME280;47610;52.252;20.922;2023-03-19T08:39:38;100433.33;;;36.31;12.46
61697;BME280;47610;52.252;20.922;2023-03-19T08:44:41;100428.06;;;34.91;12.90
61697;BME280;47610;52.252;20.922;2023-03-19T08:49:45;100426.48;;;34.06;13.22
61697;BME280;47610;52.252;20.922;2023-03-19T08:54:48;100421.70;;;32.81;13.84
61697;BME280;47610;52.252;20.922;2023-03-19T08:59:53;100418.90;;;31.59;14.49
61697;BME280;47610;52.252;20.922;2023-03-19T09:04:56;100416.45;;;31.26;14.71
61697;BME280;47610;52.252;20.922;2023-03-19T09:09:59;100414.23;;;30.36;15.45
61697;BME280;47610;52.252;20.922;2023-03-19T09:15:02;100406.33;;;28.73;16.19
61697;BME280;47610;52.252;20.922;2023-03-19T09:20:10;100411.98;;;28.20;16.65
61697;BME280;47610;52.252;20.922;2023-03-19T09:25:13;100411.27;;;29.36;16.76
61697;BME280;47610;52.252;20.922;2023-03-19T09:30:18;100411.93;;;31.02;15.88
61697;BME280;47610;52.252;20.922;2023-03-19T09:35:22;100408.51;;;32.12;15.08
61697;BME280;47610;52.252;20.922;2023-03-19T09:40:29;100405.42;;;32.89;14.72
61697;BME280;47610;52.252;20.922;2023-03-19T09:45:35;100397.34;;;33.61;14.07
61697;BME280;47610;52.252;20.922;2023-03-19T09:50:39;100401.73;;;34.04;13.82
61697;BME280;47610;52.252;20.922;2023-03-19T09:55:44;100392.20;;;33.46;13.92
61697;BME280;47610;52.252;20.922;2023-03-19T10:00:51;100388.64;;;32.64;14.31
61697;BME280;47610;52.252;20.922;2023-03-19T10:06:02;100387.69;;;32.13;14.66
61697;BME280;47610;52.252;20.922;2023-03-19T10:11:21;100391.29;;;32.04;14.61
61697;BME280;47610;52.252;20.922;2023-03-19T10:16:27;100391.34;;;31.79;14.81
61697;BME280;47610;52.252;20.922;2023-03-19T10:21:34;100388.98;;;30.54;14.90
61697;BME280;47610;52.252;20.922;2023-03-19T10:26:39;100383.94;;;29.01;15.95
61697;BME280;47610;52.252;20.922;2023-03-19T10:31:51;100379.05;;;28.43;16.68
61697;BME280;47610;52.252;20.922;2023-03-19T10:37:00;100379.08;;;28.18;17.08
61697;BME280;47610;52.252;20.922;2023-03-19T10:42:19;100378.14;;;27.50;17.37
61697;BME280;47610;52.252;20.922;2023-03-19T10:47:27;100377.60;;;26.58;18.16
61697;BME280;47610;52.252;20.922;2023-03-19T10:52:32;100380.95;;;26.20;18.76
61697;BME280;47610;52.252;20.922;2023-03-19T10:57:37;100374.93;;;25.63;19.62
61697;BME280;47610;52.252;20.922;2023-03-19T11:02:47;100368.81;;;25.08;20.22
61697;BME280;47610;52.252;20.922;2023-03-19T11:07:53;100365.44;;;24.39;20.24
61697;BME280;47610;52.252;20.922;2023-03-19T11:13:02;100361.70;;;23.47;20.85
61697;BME280;47610;52.252;20.922;2023-03-19T11:18:14;100349.20;;;22.86;21.83
61697;BME280;47610;52.252;20.922;2023-03-19T11:23:18;100341.90;;;22.37;23.10
61697;BME280;47610;52.252;20.922;2023-03-19T11:28:22;100332.59;;;21.97;23.93
61697;BME280;47610;52.252;20.922;2023-03-19T11:33:41;100323.42;;;21.62;24.26
61697;BME280;47610;52.252;20.922;2023-03-19T11:38:56;100316.76;;;21.06;25.24
61697;BME280;47610;52.252;20.922;2023-03-19T11:44:05;100306.92;;;20.47;25.89
61697;BME280;47610;52.252;20.922;2023-03-19T11:49:35;100298.50;;;20.15;26.58
61697;BME280;47610;52.252;20.922;2023-03-19T11:54:55;100289.02;;;20.01;27.27
61697;BME280;47610;52.252;20.922;2023-03-19T12:00:12;100293.08;;;19.92;27.47
61697;BME280;47610;52.252;20.922;2023-03-19T12:05:24;100283.53;;;19.93;28.03
61697;BME280;47610;52.252;20.922;2023-03-19T12:10:39;100287.84;;;19.84;28.16
61697;BME280;47610;52.252;20.922;2023-03-19T12:15:53;100286.23;;;19.62;27.42
61697;BME280;47610;52.252;20.922;2023-03-19T12:21:05;100290.97;;;19.21;27.18
61697;BME280;47610;52.252;20.922;2023-03-19T12:26:18;100286.66;;;18.83;28.06
61697;BME280;47610;52.252;20.922;2023-03-19T12:31:35;100273.30;;;18.45;28.70
61697;BME280;47610;52.252;20.922;2023-03-19T12:36:49;100277.57;;;18.22;29.64
61697;BME280;47610;52.252;20.922;2023-03-19T12:41:55;100273.70;;;18.21;29.75
61697;BME280;47610;52.252;20.922;2023-03-19T12:47:03;100277.48;;;18.06;29.12
61697;BME280;47610;52.252;20.922;2023-03-19T12:52:14;100272.23;;;17.86;29.19
61697;BME280;47610;52.252;20.922;2023-03-19T12:57:26;100265.46;;;17.75;29.62
61697;BME280;47610;52.252;20.922;2023-03-19T13:02:36;100261.34;;;17.84;29.91
61697;BME280;47610;52.252;20.922;2023-03-19T13:07:49;100254.48;;;17.99;30.36
61697;BME280;47610;52.252;20.922;2023-03-19T13:12:54;100253.42;;;18.02;31.05
61697;BME280;47610;52.252;20.922;2023-03-19T13:17:58;100247.90;;;17.94;31.35
61697;BME280;47610;52.252;20.922;2023-03-19T13:23:06;100243.13;;;17.87;31.20
61697;BME280;47610;52.252;20.922;2023-03-19T13:28:19;100244.52;;;17.76;31.54
61697;BME280;47610;52.252;20.922;2023-03-19T13:33:24;100239.67;;;17.52;32.21
61697;BME280;47610;52.252;20.922;2023-03-19T13:38:32;100239.20;;;17.36;33.56
61697;BME280;47610;52.252;20.922;2023-03-19T13:43:53;100236.96;;;17.17;33.60
61697;BME280;47610;52.252;20.922;2023-03-19T13:49:07;100235.73;;;16.97;34.35
61697;BME280;47610;52.252;20.922;2023-03-19T13:54:16;100229.60;;;16.79;33.98
61697;BME280;47610;52.252;20.922;2023-03-19T13:59:25;100227.34;;;16.76;35.34
61697;BME280;47610;52.252;20.922;2023-03-19T14:04:31;100224.02;;;16.78;35.23
61697;BME280;47610;52.252;20.922;2023-03-19T14:09:38;100223.30;;;16.75;35.28
61697;BME280;47610;52.252;20.922;2023-03-19T14:14:45;100219.28;;;16.62;34.85
61697;BME280;47610;52.252;20.922;2023-03-19T14:19:51;100219.00;;;16.47;35.57
61697;BME280;47610;52.252;20.922;2023-03-19T14:25:10;100219.69;;;16.34;35.20
61697;BME280;47610;52.252;20.922;2023-03-19T14:30:30;100223.48;;;16.24;35.39
61697;BME280;47610;52.252;20.922;2023-03-19T14:35:38;100216.91;;;16.11;35.32
61697;BME280;47610;52.252;20.922;2023-03-19T14:40:46;100214.17;;;15.95;36.37
61697;BME280;47610;52.252;20.922;2023-03-19T14:45:58;100214.39;;;15.80;36.63
61697;BME280;47610;52.252;20.922;2023-03-19T14:51:16;100217.95;;;15.59;37.08
61697;BME280;47610;52.252;20.922;2023-03-19T14:56:29;100221.41;;;15.41;37.41
61697;BME280;47610;52.252;20.922;2023-03-19T15:01:38;100218.46;;;15.34;37.69
61697;BME280;47610;52.252;20.922;2023-03-19T15:06:47;100203.36;;;15.27;37.79
61697;BME280;47610;52.252;20.922;2023-03-19T15:12:05;100204.38;;;15.17;38.15
61697;BME280;47610;52.252;20.922;2023-03-19T15:17:19;100204.73;;;15.02;38.24
61697;BME280;47610;52.252;20.922;2023-03-19T15:22:30;100203.70;;;14.85;38.98
61697;BME280;47610;52.252;20.922;2023-03-19T15:27:34;100206.62;;;14.64;38.72
61697;BME280;47610;52.252;20.922;2023-03-19T15:32:39;100202.27;;;14.43;38.93
61697;BME280;47610;52.252;20.922;2023-03-19T15:37:45;100197.30;;;14.25;39.46
61697;BME280;47610;52.252;20.922;2023-03-19T15:42:52;100201.33;;;14.11;40.22
61697;BME280;47610;52.252;20.922;2023-03-19T15:48:01;100205.46;;;14.02;41.08
61697;BME280;47610;52.252;20.922;2023-03-19T15:53:09;100207.09;;;13.94;41.17
61697;BME280;47610;52.252;20.922;2023-03-19T15:58:17;100213.23;;;13.84;41.74
61697;BME280;47610;52.252;20.922;2023-03-19T16:03:27;100213.45;;;13.74;42.81
61697;BME280;47610;52.252;20.922;2023-03-19T16:08:32;100215.02;;;13.65;43.28
61697;BME280;47610;52.252;20.922;2023-03-19T16:13:40;100222.88;;;13.55;44.04
61697;BME280;47610;52.252;20.922;2023-03-19T16:18:48;100219.75;;;13.44;44.85
61697;BME280;47610;52.252;20.922;2023-03-19T16:23:54;100225.64;;;13.35;45.66
61697;BME280;47610;52.252;20.922;2023-03-19T16:29:04;100231.45;;;13.25;46.41
61697;BME280;47610;52.252;20.922;2023-03-19T16:34:22;100237.05;;;13.15;47.42
61697;BME280;47610;52.252;20.922;2023-03-19T16:39:32;100229.80;;;13.02;48.28
61697;BME280;47610;52.252;20.922;2023-03-19T16:44:39;100235.91;;;12.86;49.24
61697;BME280;47610;52.252;20.922;2023-03-19T16:49:43;100243.29;;;12.70;50.34
61697;BME280;47610;52.252;20.922;2023-03-19T16:54:48;100245.92;;;12.55;51.39
61697;BME280;47610;52.252;20.922;2023-03-19T16:59:52;100245.36;;;12.40;53.12
61697;BME280;47610;52.252;20.922;2023-03-19T17:04:55;100248.02;;;12.28;54.77
61697;BME280;47610;52.252;20.922;2023-03-19T17:09:58;100254.33;;;12.15;56.89
61697;BME280;47610;52.252;20.922;2023-03-19T17:15:01;100258.17;;;12.02;58.28
61697;BME280;47610;52.252;20.922;2023-03-19T17:20:12;100257.28;;;11.87;59.21
61697;BME280;47610;52.252;20.922;2023-03-19T17:25:17;100257.91;;;11.75;59.81
61697;BME280;47610;52.252;20.922;2023-03-19T17:30:20;100253.99;;;11.64;61.09
61697;BME280;47610;52.252;20.922;2023-03-19T17:35:23;100258.13;;;11.56;62.31
61697;BME280;47610;52.252;20.922;2023-03-19T17:40:27;100260.99;;;11.48;63.61
61697;BME280;47610;52.252;20.922;2023-03-19T17:45:31;100259.06;;;11.41;64.43
61697;BME280;47610;52.252;20.922;2023-03-19T17:50:34;100254.34;;;11.35;65.40
61697;BME280;47610;52.252;20.922;2023-03-19T17:55:37;100248.16;;;11.28;66.71
61697;BME280;47610;52.252;20.922;2023-03-19T18:00:40;100247.08;;;11.23;68.09
61697;BME280;47610;52.252;20.922;2023-03-19T18:05:43;100245.73;;;11.18;68.44
61697;BME280;47610;52.252;20.922;2023-03-19T18:10:47;100243.77;;;11.10;68.25
61697;BME280;47610;52.252;20.922;2023-03-19T18:15:51;100240.05;;;11.04;69.77
61697;BME280;47610;52.252;20.922;2023-03-19T18:20:54;100232.16;;;10.96;70.19
61697;BME280;47610;52.252;20.922;2023-03-19T18:25:57;100228.73;;;10.86;71.14
61697;BME280;47610;52.252;20.922;2023-03-19T18:31:02;100231.41;;;10.78;72.94
61697;BME280;47610;52.252;20.922;2023-03-19T18:36:07;100237.42;;;10.69;74.68
61697;BME280;47610;52.252;20.922;2023-03-19T18:41:15;100240.70;;;10.61;76.49
61697;BME280;47610;52.252;20.922;2023-03-19T18:46:21;100237.54;;;10.53;76.95
61697;BME280;47610;52.252;20.922;2023-03-19T18:51:25;100239.08;;;10.50;77.94
61697;BME280;47610;52.252;20.922;2023-03-19T18:56:30;100235.51;;;10.46;79.02
61697;BME280;47610;52.252;20.922;2023-03-19T19:01:32;100236.89;;;10.44;79.38
61697;BME280;47610;52.252;20.922;2023-03-19T19:06:35;100235.73;;;10.39;80.40
61697;BME280;47610;52.252;20.922;2023-03-19T19:11:40;100241.19;;;10.36;81.35
61697;BME280;47610;52.252;20.922;2023-03-19T19:16:46;100239.55;;;10.31;82.06
61697;BME280;47610;52.252;20.922;2023-03-19T19:21:50;100238.64;;;10.25;83.26
61697;BME280;47610;52.252;20.922;2023-03-19T19:26:53;100236.55;;;10.21;84.88
61697;BME280;47610;52.252;20.922;2023-03-19T19:31:57;100238.32;;;10.19;85.69
61697;BME280;47610;52.252;20.922;2023-03-19T19:37:00;100236.13;;;10.17;86.61
61697;BME280;47610;52.252;20.922;2023-03-19T19:42:07;100239.75;;;10.12;87.00
61697;BME280;47610;52.252;20.922;2023-03-19T19:47:15;100240.75;;;10.08;84.04
61697;BME280;47610;52.252;20.922;2023-03-19T19:52:19;100238.72;;;10.07;85.50
61697;BME280;47610;52.252;20.922;2023-03-19T19:57:23;100239.98;;;10.02;86.43
61697;BME280;47610;52.252;20.922;2023-03-19T20:02:28;100238.77;;;9.95;87.77
61697;BME280;47610;52.252;20.922;2023-03-19T20:07:33;100242.52;;;9.87;88.87
61697;BME280;47610;52.252;20.922;2023-03-19T20:12:36;100245.13;;;9.79;89.90
61697;BME280;47610;52.252;20.922;2023-03-19T20:17:39;100245.98;;;9.70;90.87
61697;BME280;47610;52.252;20.922;2023-03-19T20:22:43;100238.26;;;9.62;91.05
61697;BME280;47610;52.252;20.922;2023-03-19T20:27:49;100233.57;;;9.54;90.68
61697;BME280;47610;52.252;20.922;2023-03-19T20:32:54;100235.98;;;9.49;89.72
61697;BME280;47610;52.252;20.922;2023-03-19T20:37:58;100237.20;;;9.49;84.93
61697;BME280;47610;52.252;20.922;2023-03-19T20:43:03;100236.59;;;9.56;83.03
61697;BME280;47610;52.252;20.922;2023-03-19T20:48:14;100232.91;;;9.61;81.75
61697;BME280;47610;52.252;20.922;2023-03-19T20:53:18;100227.98;;;9.65;80.85
61697;BME280;47610;52.252;20.922;2023-03-19T20:58:24;100225.95;;;9.65;79.92
61697;BME280;47610;52.252;20.922;2023-03-19T21:03:30;100226.54;;;9.60;79.92
61697;BME280;47610;52.252;20.922;2023-03-19T21:08:35;100227.20;;;9.56;79.51
61697;BME280;47610;52.252;20.922;2023-03-19T21:13:40;100225.27;;;9.53;79.31
61697;BME280;47610;52.252;20.922;2023-03-19T21:18:43;100229.05;;;9.51;79.54
61697;BME280;47610;52.252;20.922;2023-03-19T21:23:53;100232.08;;;9.50;79.18
61697;BME280;47610;52.252;20.922;2023-03-19T21:29:03;100233.34;;;9.51;78.22
61697;BME280;47610;52.252;20.922;2023-03-19T21:34:10;100228.73;;;9.46;78.15
61697;BME280;47610;52.252;20.922;2023-03-19T21:39:16;100227.77;;;9.37;78.58
61697;BME280;47610;52.252;20.922;2023-03-19T21:44:21;100223.09;;;9.30;80.24
61697;BME280;47610;52.252;20.922;2023-03-19T21:49:25;100219.66;;;9.20;81.44
61697;BME280;47610;52.252;20.922;2023-03-19T21:54:28;100214.64;;;9.12;81.86
61697;BME280;47610;52.252;20.922;2023-03-19T21:59:31;100211.82;;;9.09;82.03
61697;BME280;47610;52.252;20.922;2023-03-19T22:04:35;100212.91;;;9.05;82.00
61697;BME280;47610;52.252;20.922;2023-03-19T22:09:38;100209.13;;;9.05;81.28
61697;BME280;47610;52.252;20.922;2023-03-19T22:14:41;100203.51;;;9.03;81.26
61697;BME280;47610;52.252;20.922;2023-03-19T22:19:44;100210.33;;;9.06;81.42
61697;BME280;47610;52.252;20.922;2023-03-19T22:24:48;100213.73;;;9.09;81.18
61697;BME280;47610;52.252;20.922;2023-03-19T22:29:51;100214.74;;;9.14;80.98
61697;BME280;47610;52.252;20.922;2023-03-19T22:34:56;100206.80;;;9.19;79.82
61697;BME280;47610;52.252;20.922;2023-03-19T22:40:00;100208.06;;;9.24;79.47
61697;BME280;47610;52.252;20.922;2023-03-19T22:45:06;100202.48;;;9.27;79.12
61697;BME280;47610;52.252;20.922;2023-03-19T22:50:25;100200.89;;;9.29;78.86
61697;BME280;47610;52.252;20.922;2023-03-19T22:55:29;100198.30;;;9.28;78.81
61697;BME280;47610;52.252;20.922;2023-03-19T23:00:32;100200.77;;;9.24;78.82
61697;BME280;47610;52.252;20.922;2023-03-19T23:05:36;100203.12;;;9.17;79.16
61697;BME280;47610;52.252;20.922;2023-03-19T23:10:41;100206.66;;;9.11;79.51
61697;BME280;47610;52.252;20.922;2023-03-19T23:15:44;100207.08;;;9.05;79.93
61697;BME280;47610;52.252;20.922;2023-03-19T23:20:49;100200.59;;;8.98;80.48
61697;BME280;47610;52.252;20.922;2023-03-19T23:25:53;100199.10;;;8.94;81.05
61697;BME280;47610;52.252;20.922;2023-03-19T23:30:57;100191.29;;;8.91;81.38
61697;BME280;47610;52.252;20.922;2023-03-19T23:36:01;100192.36;;;8.86;81.68
61697;BME280;47610;52.252;20.922;2023-03-19T23:41:05;100189.09;;;8.79;82.31
61697;BME280;47610;52.252;20.922;2023-03-19T23:46:09;100183.34;;;8.68;82.74
61697;BME280;47610;52.252;20.922;2023-03-19T23:51:14;100180.75;;;8.54;83.45
61697;BME280;47610;52.252;20.922;2023-03-19T23:56:20;100180.34;;;8.39;84.37
